sensor_id;sensor_type;location;lat;lon;timestamp;P1;durP1;ratioP1;P2;durP2;ratioP2
9276;SDS011;4676;42.678;23.244;2023-04-03T00:01:06;1.10;;;1.10;;
9276;SDS011;4676;42.678;23.244;2023-04-03T00:03:34;1.57;;;1.47;;
9276;SDS011;4676;42.678;23.244;2023-04-03T00:06:00;1.40;;;1.30;;
9276;SDS011;4676;42.678;23.244;2023-04-03T00:08:27;2.13;;;1.40;;
9276;SDS011;4676;42.678;23.244;2023-04-03T00:10:55;1.00;;;1.00;;
9276;SDS011;4676;42.678;23.244;2023-04-03T00:13:24;1.17;;;1.07;;
9276;SDS011;4676;42.678;23.244;2023-04-03T00:15:51;1.60;;;1.30;;
9276;SDS011;4676;42.678;23.244;2023-04-03T00:18:18;1.23;;;1.23;;
9276;SDS011;4676;42.678;23.244;2023-04-03T00:20:45;1.33;;;1.30;;
9276;SDS011;4676;42.678;23.244;2023-04-03T00:23:11;3.43;;;1.40;;
9276;SDS011;4676;42.678;23.244;2023-04-03T00:25:38;2.03;;;1.67;;
9276;SDS011;4676;42.678;23.244;2023-04-03T00:28:05;1.10;;;1.00;;
9276;SDS011;4676;42.678;23.244;2023-04-03T00:30:33;1.60;;;1.50;;
9276;SDS011;4676;42.678;23.244;2023-04-03T00:33:00;1.33;;;1.23;;
9276;SDS011;4676;42.678;23.244;2023-04-03T00:35:27;1.13;;;1.07;;
9276;SDS011;4676;42.678;23.244;2023-04-03T00:37:54;1.20;;;1.20;;
9276;SDS011;4676;42.678;23.244;2023-04-03T00:40:22;2.03;;;1.30;;
9276;SDS011;4676;42.678;23.244;2023-04-03T00:42:51;1.47;;;1.37;;
9276;SDS011;4676;42.678;23.244;2023-04-03T00:45:34;1.47;;;1.40;;
9276;SDS011;4676;42.678;23.244;2023-04-03T00:48:03;1.97;;;1.17;;
9276;SDS011;4676;42.678;23.244;2023-04-03T00:50:32;1.50;;;1.03;;
9276;SDS011;4676;42.678;23.244;2023-04-03T00:53:00;2.43;;;1.40;;
9276;SDS011;4676;42.678;23.244;2023-04-03T00:55:28;1.03;;;1.03;;
9276;SDS011;4676;42.678;23.244;2023-04-03T00:57:55;1.30;;;1.20;;
9276;SDS011;4676;42.678;23.244;2023-04-03T01:00:23;1.10;;;1.10;;
9276;SDS011;4676;42.678;23.244;2023-04-03T01:02:52;1.07;;;1.00;;
9276;SDS011;4676;42.678;23.244;2023-04-03T01:05:19;1.50;;;1.40;;
9276;SDS011;4676;42.678;23.244;2023-04-03T01:07:47;1.07;;;1.07;;
9276;SDS011;4676;42.678;23.244;2023-04-03T01:10:15;0.90;;;0.90;;
9276;SDS011;4676;42.678;23.244;2023-04-03T01:12:45;1.13;;;1.13;;
9276;SDS011;4676;42.678;23.244;2023-04-03T01:15:14;1.20;;;1.20;;
9276;SDS011;4676;42.678;23.244;2023-04-03T01:17:43;1.03;;;1.03;;
9276;SDS011;4676;42.678;23.244;2023-04-03T01:20:23;1.23;;;1.13;;
9276;SDS011;4676;42.678;23.244;2023-04-03T01:23:15;1.10;;;1.10;;
9276;SDS011;4676;42.678;23.244;2023-04-03T01:25:49;1.27;;;1.27;;
9276;SDS011;4676;42.678;23.244;2023-04-03T01:28:19;1.13;;;1.13;;
9276;SDS011;4676;42.678;23.244;2023-04-03T01:30:48;1.10;;;1.10;;
9276;SDS011;4676;42.678;23.244;2023-04-03T01:33:20;0.90;;;0.90;;
9276;SDS011;4676;42.678;23.244;2023-04-03T01:35:47;1.27;;;1.17;;
9276;SDS011;4676;42.678;23.244;2023-04-03T01:38:14;3.33;;;1.03;;
9276;SDS011;4676;42.678;23.244;2023-04-03T01:40:41;1.43;;;1.17;;
9276;SDS011;4676;42.678;23.244;2023-04-03T01:43:08;1.23;;;1.20;;
9276;SDS011;4676;42.678;23.244;2023-04-03T01:45:35;1.47;;;1.40;;
9276;SDS011;4676;42.678;23.244;2023-04-03T01:48:01;1.43;;;1.33;;
9276;SDS011;4676;42.678;23.244;2023-04-03T01:50:29;1.43;;;1.17;;
9276;SDS011;4676;42.678;23.244;2023-04-03T01:52:57;1.50;;;1.50;;
9276;SDS011;4676;42.678;23.244;2023-04-03T01:55:23;3.53;;;2.23;;
9276;SDS011;4676;42.678;23.244;2023-04-03T01:57:50;2.23;;;2.00;;
9276;SDS011;4676;42.678;23.244;2023-04-03T02:00:17;2.60;;;1.83;;
9276;SDS011;4676;42.678;23.244;2023-04-03T02:02:44;2.00;;;1.90;;
9276;SDS011;4676;42.678;23.244;2023-04-03T02:05:10;3.40;;;1.73;;
9276;SDS011;4676;42.678;23.244;2023-04-03T02:07:38;1.37;;;1.30;;
9276;SDS011;4676;42.678;23.244;2023-04-03T02:10:05;1.63;;;1.53;;
9276;SDS011;4676;42.678;23.244;2023-04-03T02:12:33;3.00;;;1.57;;
9276;SDS011;4676;42.678;23.244;2023-04-03T02:14:59;2.57;;;1.40;;
9276;SDS011;4676;42.678;23.244;2023-04-03T02:17:26;1.20;;;1.20;;
9276;SDS011;4676;42.678;23.244;2023-04-03T02:19:53;1.70;;;1.50;;
9276;SDS011;4676;42.678;23.244;2023-04-03T02:22:19;1.40;;;1.40;;
9276;SDS011;4676;42.678;23.244;2023-04-03T02:24:47;2.77;;;1.70;;
9276;SDS011;4676;42.678;23.244;2023-04-03T02:27:14;2.90;;;1.63;;
9276;SDS011;4676;42.678;23.244;2023-04-03T02:29:41;1.73;;;1.63;;
9276;SDS011;4676;42.678;23.244;2023-04-03T02:32:08;1.57;;;1.47;;
9276;SDS011;4676;42.678;23.244;2023-04-03T02:34:34;1.90;;;1.80;;
9276;SDS011;4676;42.678;23.244;2023-04-03T02:37:01;2.43;;;2.23;;
9276;SDS011;4676;42.678;23.244;2023-04-03T02:39:28;2.77;;;2.57;;
9276;SDS011;4676;42.678;23.244;2023-04-03T02:41:56;5.77;;;2.40;;
9276;SDS011;4676;42.678;23.244;2023-04-03T02:44:22;2.40;;;2.20;;
9276;SDS011;4676;42.678;23.244;2023-04-03T02:46:49;2.67;;;2.17;;
9276;SDS011;4676;42.678;23.244;2023-04-03T02:49:16;1.80;;;1.70;;
9276;SDS011;4676;42.678;23.244;2023-04-03T02:51:43;1.93;;;1.83;;
9276;SDS011;4676;42.678;23.244;2023-04-03T02:54:09;1.70;;;1.60;;
9276;SDS011;4676;42.678;23.244;2023-04-03T02:56:39;1.67;;;1.57;;
9276;SDS011;4676;42.678;23.244;2023-04-03T02:59:07;1.30;;;1.30;;
9276;SDS011;4676;42.678;23.244;2023-04-03T03:01:34;2.13;;;2.03;;
9276;SDS011;4676;42.678;23.244;2023-04-03T03:04:01;2.13;;;1.97;;
9276;SDS011;4676;42.678;23.244;2023-04-03T03:06:28;1.77;;;1.67;;
9276;SDS011;4676;42.678;23.244;2023-04-03T03:08:55;1.90;;;1.80;;
9276;SDS011;4676;42.678;23.244;2023-04-03T03:11:22;1.60;;;1.60;;
9276;SDS011;4676;42.678;23.244;2023-04-03T03:13:48;1.77;;;1.70;;
9276;SDS011;4676;42.678;23.244;2023-04-03T03:16:16;2.33;;;2.23;;
9276;SDS011;4676;42.678;23.244;2023-04-03T03:18:43;1.60;;;1.50;;
9276;SDS011;4676;42.678;23.244;2023-04-03T03:21:10;2.00;;;1.90;;
9276;SDS011;4676;42.678;23.244;2023-04-03T03:23:37;1.73;;;1.63;;
9276;SDS011;4676;42.678;23.244;2023-04-03T03:26:05;1.80;;;1.70;;
9276;SDS011;4676;42.678;23.244;2023-04-03T03:28:35;2.00;;;1.90;;
9276;SDS011;4676;42.678;23.244;2023-04-03T03:31:03;2.03;;;1.90;;
9276;SDS011;4676;42.678;23.244;2023-04-03T03:33:32;5.93;;;2.00;;
9276;SDS011;4676;42.678;23.244;2023-04-03T03:35:59;2.00;;;1.90;;
9276;SDS011;4676;42.678;23.244;2023-04-03T03:38:26;8.37;;;3.20;;
9276;SDS011;4676;42.678;23.244;2023-04-03T03:40:53;10.33;;;5.67;;
9276;SDS011;4676;42.678;23.244;2023-04-03T03:43:19;50.20;;;15.83;;
9276;SDS011;4676;42.678;23.244;2023-04-03T03:45:49;45.87;;;15.97;;
9276;SDS011;4676;42.678;23.244;2023-04-03T03:48:17;18.53;;;8.93;;
9276;SDS011;4676;42.678;23.244;2023-04-03T03:50:45;9.03;;;5.40;;
9276;SDS011;4676;42.678;23.244;2023-04-03T03:53:12;10.57;;;7.00;;
9276;SDS011;4676;42.678;23.244;2023-04-03T03:55:39;7.47;;;5.40;;
9276;SDS011;4676;42.678;23.244;2023-04-03T03:58:06;6.00;;;5.37;;
9276;SDS011;4676;42.678;23.244;2023-04-03T04:00:33;5.77;;;5.30;;
9276;SDS011;4676;42.678;23.244;2023-04-03T04:03:00;5.87;;;5.50;;
9276;SDS011;4676;42.678;23.244;2023-04-03T04:05:27;6.30;;;5.73;;
9276;SDS011;4676;42.678;23.244;2023-04-03T04:07:55;8.47;;;6.67;;
9276;SDS011;4676;42.678;23.244;2023-04-03T04:10:22;6.73;;;5.43;;
9276;SDS011;4676;42.678;23.244;2023-04-03T04:12:48;6.47;;;6.07;;
9276;SDS011;4676;42.678;23.244;2023-04-03T04:15:16;5.23;;;4.83;;
9276;SDS011;4676;42.678;23.244;2023-04-03T04:17:43;6.37;;;5.73;;
9276;SDS011;4676;42.678;23.244;2023-04-03T04:20:10;6.47;;;5.33;;
9276;SDS011;4676;42.678;23.244;2023-04-03T04:22:37;6.20;;;5.70;;
9276;SDS011;4676;42.678;23.244;2023-04-03T04:25:06;5.70;;;5.20;;
9276;SDS011;4676;42.678;23.244;2023-04-03T04:27:34;11.57;;;5.30;;
9276;SDS011;4676;42.678;23.244;2023-04-03T04:30:02;26.73;;;15.07;;
9276;SDS011;4676;42.678;23.244;2023-04-03T04:32:29;18.23;;;7.87;;
9276;SDS011;4676;42.678;23.244;2023-04-03T04:34:56;9.13;;;5.53;;
9276;SDS011;4676;42.678;23.244;2023-04-03T04:37:23;7.27;;;5.10;;
9276;SDS011;4676;42.678;23.244;2023-04-03T04:39:49;6.30;;;5.70;;
9276;SDS011;4676;42.678;23.244;2023-04-03T04:42:17;6.60;;;6.00;;
9276;SDS011;4676;42.678;23.244;2023-04-03T04:44:44;5.20;;;4.77;;
9276;SDS011;4676;42.678;23.244;2023-04-03T04:47:11;6.17;;;5.30;;
9276;SDS011;4676;42.678;23.244;2023-04-03T04:49:37;6.30;;;5.03;;
9276;SDS011;4676;42.678;23.244;2023-04-03T04:52:04;8.20;;;5.40;;
9276;SDS011;4676;42.678;23.244;2023-04-03T04:54:31;9.23;;;5.43;;
9276;SDS011;4676;42.678;23.244;2023-04-03T04:56:58;6.17;;;5.67;;
9276;SDS011;4676;42.678;23.244;2023-04-03T04:59:26;20.73;;;5.73;;
9276;SDS011;4676;42.678;23.244;2023-04-03T05:01:53;7.30;;;6.10;;
9276;SDS011;4676;42.678;23.244;2023-04-03T05:04:19;10.40;;;6.77;;
9276;SDS011;4676;42.678;23.244;2023-04-03T05:06:46;20.60;;;12.87;;
9276;SDS011;4676;42.678;23.244;2023-04-03T05:09:13;14.10;;;11.07;;
9276;SDS011;4676;42.678;23.244;2023-04-03T05:11:40;14.73;;;9.80;;
9276;SDS011;4676;42.678;23.244;2023-04-03T05:14:08;11.70;;;9.83;;
9276;SDS011;4676;42.678;23.244;2023-04-03T05:16:36;14.67;;;7.00;;
9276;SDS011;4676;42.678;23.244;2023-04-03T05:19:02;15.23;;;6.63;;
9276;SDS011;4676;42.678;23.244;2023-04-03T05:21:30;10.53;;;7.67;;
9276;SDS011;4676;42.678;23.244;2023-04-03T05:23:57;10.83;;;7.10;;
9276;SDS011;4676;42.678;23.244;2023-04-03T05:26:24;14.17;;;8.40;;
9276;SDS011;4676;42.678;23.244;2023-04-03T05:28:52;12.37;;;8.23;;
9276;SDS011;4676;42.678;23.244;2023-04-03T05:31:18;14.83;;;7.90;;
9276;SDS011;4676;42.678;23.244;2023-04-03T05:33:46;8.87;;;7.47;;
9276;SDS011;4676;42.678;23.244;2023-04-03T05:36:13;12.83;;;8.63;;
9276;SDS011;4676;42.678;23.244;2023-04-03T05:38:40;51.03;;;23.20;;
9276;SDS011;4676;42.678;23.244;2023-04-03T05:41:07;56.67;;;24.63;;
9276;SDS011;4676;42.678;23.244;2023-04-03T05:43:34;18.03;;;10.80;;
9276;SDS011;4676;42.678;23.244;2023-04-03T05:46:02;10.07;;;5.67;;
9276;SDS011;4676;42.678;23.244;2023-04-03T05:48:29;13.47;;;10.83;;
9276;SDS011;4676;42.678;23.244;2023-04-03T05:50:57;17.93;;;12.17;;
9276;SDS011;4676;42.678;23.244;2023-04-03T05:53:25;5.83;;;4.60;;
9276;SDS011;4676;42.678;23.244;2023-04-03T05:55:54;13.23;;;7.20;;
9276;SDS011;4676;42.678;23.244;2023-04-03T05:58:21;11.60;;;8.47;;
9276;SDS011;4676;42.678;23.244;2023-04-03T06:00:47;6.70;;;6.20;;
9276;SDS011;4676;42.678;23.244;2023-04-03T06:03:14;7.80;;;6.63;;
9276;SDS011;4676;42.678;23.244;2023-04-03T06:05:41;7.67;;;6.03;;
9276;SDS011;4676;42.678;23.244;2023-04-03T06:08:09;7.20;;;6.00;;
9276;SDS011;4676;42.678;23.244;2023-04-03T06:10:37;5.47;;;5.07;;
9276;SDS011;4676;42.678;23.244;2023-04-03T06:13:04;8.23;;;5.03;;
9276;SDS011;4676;42.678;23.244;2023-04-03T06:15:31;9.30;;;6.10;;
9276;SDS011;4676;42.678;23.244;2023-04-03T06:17:58;10.10;;;7.47;;
9276;SDS011;4676;42.678;23.244;2023-04-03T06:20:26;13.73;;;7.67;;
9276;SDS011;4676;42.678;23.244;2023-04-03T06:22:52;5.67;;;5.10;;
9276;SDS011;4676;42.678;23.244;2023-04-03T06:25:21;7.40;;;5.30;;
9276;SDS011;4676;42.678;23.244;2023-04-03T06:27:47;4.33;;;4.03;;
9276;SDS011;4676;42.678;23.244;2023-04-03T06:30:14;3.97;;;3.53;;
9276;SDS011;4676;42.678;23.244;2023-04-03T06:32:41;4.77;;;3.80;;
9276;SDS011;4676;42.678;23.244;2023-04-03T06:35:08;7.87;;;4.17;;
9276;SDS011;4676;42.678;23.244;2023-04-03T06:37:35;10.20;;;4.30;;
9276;SDS011;4676;42.678;23.244;2023-04-03T06:40:02;4.33;;;3.97;;
9276;SDS011;4676;42.678;23.244;2023-04-03T06:42:37;3.97;;;3.70;;
9276;SDS011;4676;42.678;23.244;2023-04-03T06:45:05;3.50;;;3.30;;
9276;SDS011;4676;42.678;23.244;2023-04-03T06:47:32;3.53;;;3.27;;
9276;SDS011;4676;42.678;23.244;2023-04-03T06:49:59;3.97;;;3.27;;
9276;SDS011;4676;42.678;23.244;2023-04-03T06:52:26;3.67;;;3.47;;
9276;SDS011;4676;42.678;23.244;2023-04-03T06:54:52;3.40;;;3.10;;
9276;SDS011;4676;42.678;23.244;2023-04-03T06:57:22;4.47;;;4.17;;
9276;SDS011;4676;42.678;23.244;2023-04-03T06:59:50;3.23;;;3.03;;
9276;SDS011;4676;42.678;23.244;2023-04-03T07:02:17;4.03;;;2.97;;
9276;SDS011;4676;42.678;23.244;2023-04-03T07:04:45;2.70;;;2.50;;
9276;SDS011;4676;42.678;23.244;2023-04-03T07:07:12;3.27;;;3.07;;
9276;SDS011;4676;42.678;23.244;2023-04-03T07:09:39;6.83;;;4.17;;
9276;SDS011;4676;42.678;23.244;2023-04-03T07:14:52;4.20;;;2.97;;
9276;SDS011;4676;42.678;23.244;2023-04-03T07:17:19;3.53;;;3.33;;
9276;SDS011;4676;42.678;23.244;2023-04-03T07:19:46;5.53;;;3.07;;
9276;SDS011;4676;42.678;23.244;2023-04-03T07:22:12;3.10;;;2.90;;
9276;SDS011;4676;42.678;23.244;2023-04-03T07:24:39;3.30;;;3.00;;
9276;SDS011;4676;42.678;23.244;2023-04-03T07:27:06;3.50;;;3.20;;
9276;SDS011;4676;42.678;23.244;2023-04-03T07:29:33;4.43;;;4.03;;
9276;SDS011;4676;42.678;23.244;2023-04-03T07:32:02;3.70;;;3.30;;
9276;SDS011;4676;42.678;23.244;2023-04-03T07:34:29;6.73;;;3.40;;
9276;SDS011;4676;42.678;23.244;2023-04-03T07:36:55;3.27;;;3.07;;
9276;SDS011;4676;42.678;23.244;2023-04-03T07:39:22;3.10;;;2.90;;
9276;SDS011;4676;42.678;23.244;2023-04-03T07:41:49;3.07;;;2.87;;
9276;SDS011;4676;42.678;23.244;2023-04-03T07:44:16;3.67;;;3.33;;
9276;SDS011;4676;42.678;23.244;2023-04-03T07:46:43;2.27;;;2.17;;
9276;SDS011;4676;42.678;23.244;2023-04-03T07:49:11;4.30;;;3.97;;
9276;SDS011;4676;42.678;23.244;2023-04-03T07:51:37;2.83;;;2.63;;
9276;SDS011;4676;42.678;23.244;2023-04-03T07:54:04;1.80;;;1.70;;
9276;SDS011;4676;42.678;23.244;2023-04-03T07:56:31;2.43;;;2.23;;
9276;SDS011;4676;42.678;23.244;2023-04-03T07:58:58;2.97;;;2.77;;
9276;SDS011;4676;42.678;23.244;2023-04-03T08:01:25;3.30;;;2.60;;
9276;SDS011;4676;42.678;23.244;2023-04-03T08:03:51;3.67;;;2.80;;
9276;SDS011;4676;42.678;23.244;2023-04-03T08:06:20;3.97;;;2.27;;
9276;SDS011;4676;42.678;23.244;2023-04-03T08:08:46;2.20;;;2.10;;
9276;SDS011;4676;42.678;23.244;2023-04-03T08:11:13;1.77;;;1.67;;
9276;SDS011;4676;42.678;23.244;2023-04-03T08:13:40;2.30;;;2.20;;
9276;SDS011;4676;42.678;23.244;2023-04-03T08:16:09;2.83;;;2.67;;
9276;SDS011;4676;42.678;23.244;2023-04-03T08:18:36;2.70;;;2.50;;
9276;SDS011;4676;42.678;23.244;2023-04-03T08:21:07;6.03;;;5.63;;
9276;SDS011;4676;42.678;23.244;2023-04-03T08:23:35;8.53;;;7.80;;
9276;SDS011;4676;42.678;23.244;2023-04-03T08:26:06;9.07;;;7.87;;
9276;SDS011;4676;42.678;23.244;2023-04-03T08:28:34;9.90;;;8.60;;
9276;SDS011;4676;42.678;23.244;2023-04-03T08:31:04;8.27;;;7.63;;
9276;SDS011;4676;42.678;23.244;2023-04-03T08:33:32;7.50;;;6.83;;
9276;SDS011;4676;42.678;23.244;2023-04-03T08:36:00;11.37;;;6.60;;
9276;SDS011;4676;42.678;23.244;2023-04-03T08:38:28;8.90;;;5.57;;
9276;SDS011;4676;42.678;23.244;2023-04-03T08:41:04;8.57;;;6.30;;
9276;SDS011;4676;42.678;23.244;2023-04-03T08:43:38;9.87;;;6.40;;
9276;SDS011;4676;42.678;23.244;2023-04-03T08:46:14;8.03;;;7.13;;
9276;SDS011;4676;42.678;23.244;2023-04-03T08:48:43;16.03;;;7.40;;
9276;SDS011;4676;42.678;23.244;2023-04-03T08:51:11;9.67;;;7.63;;
9276;SDS011;4676;42.678;23.244;2023-04-03T08:53:42;9.63;;;5.90;;
9276;SDS011;4676;42.678;23.244;2023-04-03T08:56:16;8.27;;;7.57;;
9276;SDS011;4676;42.678;23.244;2023-04-03T08:58:46;6.90;;;6.20;;
9276;SDS011;4676;42.678;23.244;2023-04-03T09:01:17;13.70;;;6.57;;
9276;SDS011;4676;42.678;23.244;2023-04-03T09:03:46;8.23;;;6.97;;
9276;SDS011;4676;42.678;23.244;2023-04-03T09:06:13;8.90;;;7.67;;
9276;SDS011;4676;42.678;23.244;2023-04-03T09:08:43;8.67;;;7.87;;
9276;SDS011;4676;42.678;23.244;2023-04-03T09:11:20;11.30;;;8.13;;
9276;SDS011;4676;42.678;23.244;2023-04-03T09:13:52;8.43;;;7.63;;
9276;SDS011;4676;42.678;23.244;2023-04-03T09:16:27;8.40;;;7.70;;
9276;SDS011;4676;42.678;23.244;2023-04-03T09:19:02;8.37;;;7.53;;
9276;SDS011;4676;42.678;23.244;2023-04-03T09:21:36;10.87;;;6.97;;
9276;SDS011;4676;42.678;23.244;2023-04-03T09:24:07;19.33;;;9.27;;
9276;SDS011;4676;42.678;23.244;2023-04-03T09:26:38;13.27;;;9.20;;
9276;SDS011;4676;42.678;23.244;2023-04-03T09:29:10;15.87;;;9.87;;
9276;SDS011;4676;42.678;23.244;2023-04-03T09:31:44;13.80;;;9.90;;
9276;SDS011;4676;42.678;23.244;2023-04-03T09:34:14;20.03;;;9.60;;
9276;SDS011;4676;42.678;23.244;2023-04-03T09:36:47;12.97;;;9.23;;
9276;SDS011;4676;42.678;23.244;2023-04-03T09:39:17;15.77;;;10.20;;
9276;SDS011;4676;42.678;23.244;2023-04-03T09:41:57;10.33;;;9.33;;
9276;SDS011;4676;42.678;23.244;2023-04-03T09:44:27;11.03;;;8.40;;
9276;SDS011;4676;42.678;23.244;2023-04-03T09:46:55;10.07;;;7.60;;
9276;SDS011;4676;42.678;23.244;2023-04-03T09:49:22;9.40;;;8.60;;
9276;SDS011;4676;42.678;23.244;2023-04-03T09:51:48;10.37;;;9.40;;
9276;SDS011;4676;42.678;23.244;2023-04-03T09:54:32;9.13;;;8.10;;
9276;SDS011;4676;42.678;23.244;2023-04-03T09:57:06;12.00;;;8.03;;
9276;SDS011;4676;42.678;23.244;2023-04-03T09:59:36;11.87;;;7.07;;
9276;SDS011;4676;42.678;23.244;2023-04-03T10:02:21;10.90;;;7.33;;
9276;SDS011;4676;42.678;23.244;2023-04-03T10:04:54;10.23;;;7.30;;
9276;SDS011;4676;42.678;23.244;2023-04-03T10:07:30;7.83;;;5.83;;
9276;SDS011;4676;42.678;23.244;2023-04-03T10:09:58;8.37;;;6.10;;
9276;SDS011;4676;42.678;23.244;2023-04-03T10:12:29;9.20;;;5.77;;
9276;SDS011;4676;42.678;23.244;2023-04-03T10:14:57;5.50;;;5.00;;
9276;SDS011;4676;42.678;23.244;2023-04-03T10:17:32;4.07;;;3.77;;
9276;SDS011;4676;42.678;23.244;2023-04-03T10:20:09;4.10;;;3.77;;
9276;SDS011;4676;42.678;23.244;2023-04-03T10:22:55;4.67;;;4.20;;
9276;SDS011;4676;42.678;23.244;2023-04-03T10:25:27;13.40;;;3.93;;
9276;SDS011;4676;42.678;23.244;2023-04-03T10:28:00;3.97;;;3.67;;
9276;SDS011;4676;42.678;23.244;2023-04-03T10:30:36;3.83;;;3.53;;
9276;SDS011;4676;42.678;23.244;2023-04-03T10:33:18;4.43;;;3.63;;
9276;SDS011;4676;42.678;23.244;2023-04-03T10:35:55;2.90;;;2.73;;
9276;SDS011;4676;42.678;23.244;2023-04-03T10:38:37;2.63;;;2.53;;
9276;SDS011;4676;42.678;23.244;2023-04-03T10:41:12;3.20;;;3.00;;
9276;SDS011;4676;42.678;23.244;2023-04-03T10:43:48;5.47;;;2.97;;
9276;SDS011;4676;42.678;23.244;2023-04-03T10:46:20;2.83;;;2.63;;
9276;SDS011;4676;42.678;23.244;2023-04-03T10:48:57;3.70;;;2.30;;
9276;SDS011;4676;42.678;23.244;2023-04-03T10:51:33;3.27;;;2.97;;
9276;SDS011;4676;42.678;23.244;2023-04-03T10:54:08;3.53;;;2.50;;
9276;SDS011;4676;42.678;23.244;2023-04-03T10:56:39;3.03;;;2.40;;
9276;SDS011;4676;42.678;23.244;2023-04-03T10:59:23;3.63;;;2.77;;
9276;SDS011;4676;42.678;23.244;2023-04-03T11:01:55;3.53;;;3.23;;
9276;SDS011;4676;42.678;23.244;2023-04-03T11:04:25;3.23;;;3.03;;
9276;SDS011;4676;42.678;23.244;2023-04-03T11:06:56;3.50;;;2.60;;
9276;SDS011;4676;42.678;23.244;2023-04-03T11:09:28;7.30;;;3.13;;
9276;SDS011;4676;42.678;23.244;2023-04-03T11:12:03;3.30;;;3.03;;
9276;SDS011;4676;42.678;23.244;2023-04-03T11:14:35;3.37;;;3.17;;
9276;SDS011;4676;42.678;23.244;2023-04-03T11:17:05;3.23;;;2.40;;
9276;SDS011;4676;42.678;23.244;2023-04-03T11:19:41;2.77;;;2.50;;
9276;SDS011;4676;42.678;23.244;2023-04-03T11:22:16;3.23;;;1.97;;
9276;SDS011;4676;42.678;23.244;2023-04-03T11:27:17;2.20;;;2.10;;
9276;SDS011;4676;42.678;23.244;2023-04-03T11:29:50;2.40;;;2.30;;
9276;SDS011;4676;42.678;23.244;2023-04-03T11:32:35;3.60;;;2.83;;
9276;SDS011;4676;42.678;23.244;2023-04-03T11:35:15;3.23;;;3.03;;
9276;SDS011;4676;42.678;23.244;2023-04-03T11:37:44;2.70;;;2.60;;
9276;SDS011;4676;42.678;23.244;2023-04-03T11:40:19;2.87;;;2.67;;
9276;SDS011;4676;42.678;23.244;2023-04-03T11:42:52;3.23;;;3.03;;
9276;SDS011;4676;42.678;23.244;2023-04-03T11:45:33;2.77;;;2.57;;
9276;SDS011;4676;42.678;23.244;2023-04-03T11:48:03;3.23;;;3.03;;
9276;SDS011;4676;42.678;23.244;2023-04-03T11:50:42;3.33;;;3.13;;
9276;SDS011;4676;42.678;23.244;2023-04-03T11:55:59;3.77;;;3.47;;
9276;SDS011;4676;42.678;23.244;2023-04-03T11:58:30;4.00;;;3.70;;
9276;SDS011;4676;42.678;23.244;2023-04-03T12:04:09;3.97;;;3.60;;
9276;SDS011;4676;42.678;23.244;2023-04-03T12:06:49;3.60;;;3.40;;
9276;SDS011;4676;42.678;23.244;2023-04-03T12:12:29;5.07;;;4.63;;
9276;SDS011;4676;42.678;23.244;2023-04-03T12:18:31;3.77;;;3.57;;
9276;SDS011;4676;42.678;23.244;2023-04-03T12:21:10;3.30;;;3.10;;
9276;SDS011;4676;42.678;23.244;2023-04-03T12:26:28;3.33;;;3.07;;
9276;SDS011;4676;42.678;23.244;2023-04-03T12:28:58;3.43;;;3.13;;
9276;SDS011;4676;42.678;23.244;2023-04-03T12:31:38;3.70;;;3.50;;
9276;SDS011;4676;42.678;23.244;2023-04-03T12:34:15;3.83;;;3.53;;
9276;SDS011;4676;42.678;23.244;2023-04-03T12:36:54;3.20;;;3.00;;
9276;SDS011;4676;42.678;23.244;2023-04-03T12:45:19;4.17;;;3.87;;
9276;SDS011;4676;42.678;23.244;2023-04-03T12:47:49;3.30;;;3.10;;
9276;SDS011;4676;42.678;23.244;2023-04-03T12:50:18;4.13;;;3.83;;
9276;SDS011;4676;42.678;23.244;2023-04-03T12:52:51;3.20;;;3.00;;
9276;SDS011;4676;42.678;23.244;2023-04-03T12:55:24;3.10;;;2.90;;
9276;SDS011;4676;42.678;23.244;2023-04-03T12:57:51;3.73;;;3.43;;
9276;SDS011;4676;42.678;23.244;2023-04-03T13:00:22;3.83;;;3.53;;
9276;SDS011;4676;42.678;23.244;2023-04-03T13:02:57;3.97;;;3.77;;
9276;SDS011;4676;42.678;23.244;2023-04-03T13:05:24;4.77;;;4.37;;
9276;SDS011;4676;42.678;23.244;2023-04-03T13:07:54;4.87;;;4.57;;
9276;SDS011;4676;42.678;23.244;2023-04-03T13:10:24;5.77;;;5.00;;
9276;SDS011;4676;42.678;23.244;2023-04-03T13:12:52;3.80;;;3.50;;
9276;SDS011;4676;42.678;23.244;2023-04-03T13:15:21;4.40;;;4.10;;
9276;SDS011;4676;42.678;23.244;2023-04-03T13:17:50;4.33;;;4.07;;
9276;SDS011;4676;42.678;23.244;2023-04-03T13:20:19;4.70;;;4.30;;
9276;SDS011;4676;42.678;23.244;2023-04-03T13:22:50;4.67;;;4.37;;
9276;SDS011;4676;42.678;23.244;2023-04-03T13:25:21;6.00;;;5.57;;
9276;SDS011;4676;42.678;23.244;2023-04-03T13:27:50;5.67;;;5.17;;
9276;SDS011;4676;42.678;23.244;2023-04-03T13:30:19;7.90;;;5.20;;
9276;SDS011;4676;42.678;23.244;2023-04-03T13:32:49;5.80;;;5.00;;
9276;SDS011;4676;42.678;23.244;2023-04-03T13:35:30;6.20;;;5.70;;
9276;SDS011;4676;42.678;23.244;2023-04-03T13:38:04;6.27;;;5.80;;
9276;SDS011;4676;42.678;23.244;2023-04-03T13:40:49;6.17;;;5.20;;
9276;SDS011;4676;42.678;23.244;2023-04-03T13:45:56;6.53;;;6.03;;
9276;SDS011;4676;42.678;23.244;2023-04-03T13:48:36;6.00;;;5.50;;
9276;SDS011;4676;42.678;23.244;2023-04-03T13:51:05;6.43;;;5.83;;
9276;SDS011;4676;42.678;23.244;2023-04-03T13:53:44;6.33;;;5.73;;
9276;SDS011;4676;42.678;23.244;2023-04-03T13:56:19;7.73;;;5.93;;
9276;SDS011;4676;42.678;23.244;2023-04-03T13:58:54;10.90;;;6.50;;
9276;SDS011;4676;42.678;23.244;2023-04-03T14:01:32;6.97;;;6.30;;
9276;SDS011;4676;42.678;23.244;2023-04-03T14:04:09;5.90;;;5.50;;
9276;SDS011;4676;42.678;23.244;2023-04-03T14:06:38;6.20;;;5.80;;
9276;SDS011;4676;42.678;23.244;2023-04-03T14:09:05;6.50;;;5.70;;
9276;SDS011;4676;42.678;23.244;2023-04-03T14:11:33;7.03;;;6.50;;
9276;SDS011;4676;42.678;23.244;2023-04-03T14:14:02;7.87;;;5.90;;
9276;SDS011;4676;42.678;23.244;2023-04-03T14:16:37;5.80;;;5.50;;
9276;SDS011;4676;42.678;23.244;2023-04-03T14:19:06;6.00;;;5.60;;
9276;SDS011;4676;42.678;23.244;2023-04-03T14:21:33;6.00;;;5.60;;
9276;SDS011;4676;42.678;23.244;2023-04-03T14:24:00;7.20;;;4.93;;
9276;SDS011;4676;42.678;23.244;2023-04-03T14:26:28;5.00;;;4.63;;
9276;SDS011;4676;42.678;23.244;2023-04-03T14:28:56;5.17;;;4.77;;
9276;SDS011;4676;42.678;23.244;2023-04-03T14:31:23;4.80;;;4.50;;
9276;SDS011;4676;42.678;23.244;2023-04-03T14:33:50;5.83;;;5.37;;
9276;SDS011;4676;42.678;23.244;2023-04-03T14:36:18;4.97;;;4.67;;
9276;SDS011;4676;42.678;23.244;2023-04-03T14:38:47;5.43;;;5.03;;
9276;SDS011;4676;42.678;23.244;2023-04-03T14:41:16;4.40;;;4.20;;
9276;SDS011;4676;42.678;23.244;2023-04-03T14:43:45;6.17;;;5.40;;
9276;SDS011;4676;42.678;23.244;2023-04-03T14:46:15;5.10;;;4.70;;
9276;SDS011;4676;42.678;23.244;2023-04-03T14:48:43;5.20;;;4.90;;
9276;SDS011;4676;42.678;23.244;2023-04-03T14:51:11;4.13;;;3.77;;
9276;SDS011;4676;42.678;23.244;2023-04-03T14:53:40;5.20;;;4.90;;
9276;SDS011;4676;42.678;23.244;2023-04-03T14:56:12;8.77;;;5.00;;
9276;SDS011;4676;42.678;23.244;2023-04-03T14:58:50;5.07;;;4.10;;
9276;SDS011;4676;42.678;23.244;2023-04-03T15:01:23;4.27;;;4.03;;
9276;SDS011;4676;42.678;23.244;2023-04-03T15:03:50;3.87;;;3.67;;
9276;SDS011;4676;42.678;23.244;2023-04-03T15:06:16;2.90;;;2.80;;
9276;SDS011;4676;42.678;23.244;2023-04-03T15:08:44;4.27;;;3.97;;
9276;SDS011;4676;42.678;23.244;2023-04-03T15:11:12;4.90;;;4.60;;
9276;SDS011;4676;42.678;23.244;2023-04-03T15:13:40;4.37;;;4.07;;
9276;SDS011;4676;42.678;23.244;2023-04-03T15:16:11;4.37;;;4.07;;
9276;SDS011;4676;42.678;23.244;2023-04-03T15:18:42;5.20;;;4.37;;
9276;SDS011;4676;42.678;23.244;2023-04-03T15:21:10;3.70;;;3.47;;
9276;SDS011;4676;42.678;23.244;2023-04-03T15:23:37;3.93;;;3.63;;
9276;SDS011;4676;42.678;23.244;2023-04-03T15:26:03;3.43;;;3.23;;
9276;SDS011;4676;42.678;23.244;2023-04-03T15:28:32;3.93;;;3.70;;
9276;SDS011;4676;42.678;23.244;2023-04-03T15:31:01;3.80;;;3.50;;
9276;SDS011;4676;42.678;23.244;2023-04-03T15:33:29;4.03;;;3.60;;
9276;SDS011;4676;42.678;23.244;2023-04-03T15:35:58;3.83;;;3.57;;
9276;SDS011;4676;42.678;23.244;2023-04-03T15:38:25;3.77;;;3.57;;
9276;SDS011;4676;42.678;23.244;2023-04-03T15:40:51;5.80;;;5.10;;